Ever Ultra — 3FEJ6 — position and weather

sailwx.info

Track history (hours):
 
Tides and Currents Weather Stations Pressure Air Temp Water Temp Dewpoint Dewpoint Depression Visibility Wind Speed Wind Dir Waves Ship Positions

Ever Ultra

Last reported at 2018-Feb-21 15:14 UTC. Time now 2018-Feb-24 22:03 UTC.
Position N 41°38' E 141°42'.

Type: Ship (hazmat cat D). MMSI: 356349000.

Date/timePositionNaut miles runAvg speedWind from/ knotsBaromVisibWave heightAir tempDewpointWater temp
2018-Feb-21 15:14N 41°38' E 141°42'620.0
2018-Feb-21 14:55N 41°38' E 141°34'920.5
2018-Feb-21 14:29N 41°38' E 141°22'919.3
2018-Feb-21 14:00N 41°38' E 141°09'1121.3
2018-Feb-21 13:30N 41°38' E 140°55'1121.2
2018-Feb-21 13:00N 41°33' E 140°43'1121.0
2018-Feb-21 12:31N 41°26' E 140°31'1121.5
2018-Feb-21 12:00N 41°20' E 140°19'61520.8
2018-Feb-20 06:27N 34°39' E 130°28'1121.8
2018-Feb-20 05:57N 34°33' E 130°17'1021.9
2018-Feb-20 05:30N 34°27' E 130°08'1122.0
2018-Feb-20 05:00N 34°19' E 129°58'  
2018-Feb-17 08:34N 31°05' E 122°31'4 9.9
2018-Feb-17 08:11N 31°06' E 122°26'213.4
2018-Feb-17 08:00N 31°06' E 122°23'1414.4
2018-Feb-17 07:04N 31°12' E 122°09'114.7
2018-Feb-17 06:58N 31°13' E 122°08'814.7
2018-Feb-17 06:25N 31°15' E 121°59'613.9
2018-Feb-17 06:00N 31°16' E 121°52'712.0
2018-Feb-17 05:26N 31°19' E 121°45'46 1.1
2018-Feb-15 13:15N 31°11' E 122°38'0 0.1
2018-Feb-15 13:01N 31°11' E 122°38'0 0.1
2018-Feb-15 11:39N 31°10' E 122°38'0 0.3
2018-Feb-15 11:27N 31°10' E 122°38'1 0.3
2018-Feb-15 07:38N 31°09' E 122°38'310.3
2018-Feb-15 07:23N 31°07' E 122°40'1114.7
2018-Feb-15 06:38N 31°05' E 122°53'216.0
2018-Feb-15 06:30N 31°04' E 122°55'33617.0
2018-Feb-14 10:44N 25°46' E 120°52'418.9
2018-Feb-14 10:30N 25°42' E 120°50'919.0
2018-Feb-14 10:00N 25°33' E 120°46'918.9
2018-Feb-14 09:30N 25°24' E 120°42'1019.4
2018-Feb-14 09:00N 25°16' E 120°37'1019.1
2018-Feb-14 08:30N 25°08' E 120°32'918.8
2018-Feb-14 08:01N 24°60' E 120°27'1019.2
2018-Feb-14 07:29N 24°51' E 120°21'918.9
2018-Feb-14 07:00N 24°42' E 120°18'918.8
2018-Feb-14 06:30N 24°34' E 120°14'918.6
2018-Feb-14 06:00N 24°25' E 120°09'918.2
2018-Feb-14 05:31N 24°17' E 120°06'918.3
2018-Feb-14 05:00N 24°08' E 120°02'918.2
2018-Feb-14 04:30N 23°60' E 119°59'918.9
2018-Feb-14 04:00N 23°51' E 119°55'1019.4
2018-Feb-14 03:30N 23°42' E 119°53'1019.9
2018-Feb-14 03:00N 23°32' E 119°54'1019.8
2018-Feb-14 02:31N 23°22' E 119°55'1020.4
2018-Feb-14 02:00N 23°12' E 119°55'1019.6
2018-Feb-14 01:31N 23°02' E 119°56'917.4
2018-Feb-14 01:01N 22°54' E 120°01'713.1
2018-Feb-14 00:30N 22°49' E 120°05'611.7
2018-Feb-14 00:00N 22°44' E 120°08'611.9
2018-Feb-13 23:30N 22°38' E 120°11'611.7
2018-Feb-13 23:00N 22°33' E 120°13'510.2
2018-Feb-13 22:30N 22°33' E 120°19'0 0.7
2018-Feb-13 21:59N 22°34' E 120°19'0 0.0
2018-Feb-13 21:29N 22°34' E 120°19'0 0.0
2018-Feb-13 20:59N 22°34' E 120°19'0 0.0
2018-Feb-13 20:29N 22°34' E 120°19'0 0.0
2018-Feb-13 19:59N 22°34' E 120°19'0 0.0
2018-Feb-13 19:29N 22°34' E 120°19'0 0.0
2018-Feb-13 18:59N 22°34' E 120°19'0 0.0
2018-Feb-13 18:29N 22°34' E 120°19'0 0.0
2018-Feb-13 17:59N 22°34' E 120°19'0 0.0
2018-Feb-13 17:29N 22°34' E 120°19'0 0.0
2018-Feb-13 16:56N 22°34' E 120°19'0 0.0
2018-Feb-13 16:29N 22°34' E 120°19'0 0.0
2018-Feb-13 15:59N 22°34' E 120°19'0 0.0
2018-Feb-13 15:26N 22°34' E 120°19'0 0.0
2018-Feb-13 14:59N 22°34' E 120°19'0 0.0
2018-Feb-13 14:29N 22°34' E 120°19'0 0.0
2018-Feb-13 13:59N 22°34' E 120°19'0 0.0
2018-Feb-13 13:29N 22°34' E 120°19'0 0.0
2018-Feb-13 12:59N 22°34' E 120°19'0 0.0
2018-Feb-13 12:30N 22°34' E 120°19'0 0.0
2018-Feb-13 12:01N 22°34' E 120°19'0 0.0
2018-Feb-13 11:31N 22°34' E 120°19'0 0.0
2018-Feb-13 11:00N 22°34' E 120°19'0 0.0
2018-Feb-13 10:30N 22°34' E 120°19'0 0.0
2018-Feb-13 10:00N 22°34' E 120°19'0 0.0
2018-Feb-13 09:30N 22°34' E 120°19'0 0.2
2018-Feb-13 09:00N 22°33' E 120°19'3 5.3
2018-Feb-13 08:30N 22°33' E 120°16'3 5.6
2018-Feb-13 08:00N 22°31' E 120°14'4 8.6
2018-Feb-13 07:30N 22°32' E 120°09'611.8
2018-Feb-13 06:59N 22°31' E 120°02'511.6
2018-Feb-13 06:30N 22°30' E 119°56'916.7
2018-Feb-13 05:58N 22°29' E 119°47'  
Track history (hours):
 
Tides and Currents Weather Stations Pressure Air Temp Water Temp Dewpoint Dewpoint Depression Visibility Wind Speed Wind Dir Waves Ship Positions

Ever Ultra

Last reported at 2018-Feb-21 15:14 UTC. Time now 2018-Feb-24 22:03 UTC.
Position N 41°38' E 141°42'.

Type: Ship (hazmat cat D). MMSI: 356349000.

Date/timePositionNaut miles runAvg speedWind from/ knotsBaromVisibWave heightAir tempDewpointWater temp
2018-Feb-21 15:14N 41°38' E 141°42'620.0
2018-Feb-21 14:55N 41°38' E 141°34'920.5
2018-Feb-21 14:29N 41°38' E 141°22'919.3
2018-Feb-21 14:00N 41°38' E 141°09'1121.3
2018-Feb-21 13:30N 41°38' E 140°55'1121.2
2018-Feb-21 13:00N 41°33' E 140°43'1121.0
2018-Feb-21 12:31N 41°26' E 140°31'1121.5
2018-Feb-21 12:00N 41°20' E 140°19'61520.8
2018-Feb-20 06:27N 34°39' E 130°28'1121.8
2018-Feb-20 05:57N 34°33' E 130°17'1021.9
2018-Feb-20 05:30N 34°27' E 130°08'1122.0
2018-Feb-20 05:00N 34°19' E 129°58'  
2018-Feb-17 08:34N 31°05' E 122°31'4 9.9
2018-Feb-17 08:11N 31°06' E 122°26'213.4
2018-Feb-17 08:00N 31°06' E 122°23'1414.4
2018-Feb-17 07:04N 31°12' E 122°09'114.7
2018-Feb-17 06:58N 31°13' E 122°08'814.7
2018-Feb-17 06:25N 31°15' E 121°59'613.9
2018-Feb-17 06:00N 31°16' E 121°52'712.0
2018-Feb-17 05:26N 31°19' E 121°45'46 1.1
2018-Feb-15 13:15N 31°11' E 122°38'0 0.1
2018-Feb-15 13:01N 31°11' E 122°38'0 0.1
2018-Feb-15 11:39N 31°10' E 122°38'0 0.3
2018-Feb-15 11:27N 31°10' E 122°38'1 0.3
2018-Feb-15 07:38N 31°09' E 122°38'310.3
2018-Feb-15 07:23N 31°07' E 122°40'1114.7
2018-Feb-15 06:38N 31°05' E 122°53'216.0
2018-Feb-15 06:30N 31°04' E 122°55'33617.0
2018-Feb-14 10:44N 25°46' E 120°52'418.9
2018-Feb-14 10:30N 25°42' E 120°50'919.0
2018-Feb-14 10:00N 25°33' E 120°46'918.9
2018-Feb-14 09:30N 25°24' E 120°42'1019.4
2018-Feb-14 09:00N 25°16' E 120°37'1019.1
2018-Feb-14 08:30N 25°08' E 120°32'918.8
2018-Feb-14 08:01N 24°60' E 120°27'1019.2
2018-Feb-14 07:29N 24°51' E 120°21'918.9
2018-Feb-14 07:00N 24°42' E 120°18'918.8
2018-Feb-14 06:30N 24°34' E 120°14'918.6
2018-Feb-14 06:00N 24°25' E 120°09'918.2
2018-Feb-14 05:31N 24°17' E 120°06'918.3
2018-Feb-14 05:00N 24°08' E 120°02'918.2
2018-Feb-14 04:30N 23°60' E 119°59'918.9
2018-Feb-14 04:00N 23°51' E 119°55'1019.4
2018-Feb-14 03:30N 23°42' E 119°53'1019.9
2018-Feb-14 03:00N 23°32' E 119°54'1019.8
2018-Feb-14 02:31N 23°22' E 119°55'1020.4
2018-Feb-14 02:00N 23°12' E 119°55'1019.6
2018-Feb-14 01:31N 23°02' E 119°56'917.4
2018-Feb-14 01:01N 22°54' E 120°01'713.1
2018-Feb-14 00:30N 22°49' E 120°05'611.7
2018-Feb-14 00:00N 22°44' E 120°08'611.9
2018-Feb-13 23:30N 22°38' E 120°11'611.7
2018-Feb-13 23:00N 22°33' E 120°13'510.2
2018-Feb-13 22:30N 22°33' E 120°19'0 0.7
2018-Feb-13 21:59N 22°34' E 120°19'0 0.0
2018-Feb-13 21:29N 22°34' E 120°19'0 0.0
2018-Feb-13 20:59N 22°34' E 120°19'0 0.0
2018-Feb-13 20:29N 22°34' E 120°19'0 0.0
2018-Feb-13 19:59N 22°34' E 120°19'0 0.0
2018-Feb-13 19:29N 22°34' E 120°19'0 0.0
2018-Feb-13 18:59N 22°34' E 120°19'0 0.0
2018-Feb-13 18:29N 22°34' E 120°19'0 0.0
2018-Feb-13 17:59N 22°34' E 120°19'0 0.0
2018-Feb-13 17:29N 22°34' E 120°19'0 0.0
2018-Feb-13 16:56N 22°34' E 120°19'0 0.0
2018-Feb-13 16:29N 22°34' E 120°19'0 0.0
2018-Feb-13 15:59N 22°34' E 120°19'0 0.0
2018-Feb-13 15:26N 22°34' E 120°19'0 0.0
2018-Feb-13 14:59N 22°34' E 120°19'0 0.0
2018-Feb-13 14:29N 22°34' E 120°19'0 0.0
2018-Feb-13 13:59N 22°34' E 120°19'0 0.0
2018-Feb-13 13:29N 22°34' E 120°19'0 0.0
2018-Feb-13 12:59N 22°34' E 120°19'0 0.0
2018-Feb-13 12:30N 22°34' E 120°19'0 0.0
2018-Feb-13 12:01N 22°34' E 120°19'0 0.0
2018-Feb-13 11:31N 22°34' E 120°19'0 0.0
2018-Feb-13 11:00N 22°34' E 120°19'0 0.0
2018-Feb-13 10:30N 22°34' E 120°19'0 0.0
2018-Feb-13 10:00N 22°34' E 120°19'0 0.0
2018-Feb-13 09:30N 22°34' E 120°19'0 0.2
2018-Feb-13 09:00N 22°33' E 120°19'3 5.3
2018-Feb-13 08:30N 22°33' E 120°16'3 5.6
2018-Feb-13 08:00N 22°31' E 120°14'4 8.6
2018-Feb-13 07:30N 22°32' E 120°09'611.8
2018-Feb-13 06:59N 22°31' E 120°02'511.6
2018-Feb-13 06:30N 22°30' E 119°56'916.7
2018-Feb-13 05:58N 22°29' E 119°47'  

Dump ship's entire track history